sensor_id;sensor_type;location;lat;lon;timestamp;pressure;altitude;pressure_sealevel;temperature;humidity
6028;BME280;3042;43.194;27.646;2024-03-08T00:02:14;101984.91;;;13.70;100.00
6028;BME280;3042;43.194;27.646;2024-03-08T00:04:41;101981.56;;;13.72;100.00
6028;BME280;3042;43.194;27.646;2024-03-08T00:07:10;101978.50;;;13.63;100.00
6028;BME280;3042;43.194;27.646;2024-03-08T00:09:39;101971.03;;;13.53;100.00
6028;BME280;3042;43.194;27.646;2024-03-08T00:12:06;101972.16;;;13.25;100.00
6028;BME280;3042;43.194;27.646;2024-03-08T00:14:35;101964.69;;;13.48;100.00
6028;BME280;3042;43.194;27.646;2024-03-08T00:17:03;101962.09;;;13.64;100.00
6028;BME280;3042;43.194;27.646;2024-03-08T00:19:30;101962.25;;;13.84;100.00
6028;BME280;3042;43.194;27.646;2024-03-08T00:21:57;101953.25;;;13.95;100.00
6028;BME280;3042;43.194;27.646;2024-03-08T00:24:26;101953.97;;;13.75;100.00
6028;BME280;3042;43.194;27.646;2024-03-08T00:26:54;101945.22;;;13.90;100.00
6028;BME280;3042;43.194;27.646;2024-03-08T00:29:21;101936.09;;;13.81;100.00
6028;BME280;3042;43.194;27.646;2024-03-08T00:31:49;101939.69;;;13.66;100.00
6028;BME280;3042;43.194;27.646;2024-03-08T00:34:16;101949.13;;;13.48;100.00
6028;BME280;3042;43.194;27.646;2024-03-08T00:36:43;101870.22;;;12.79;100.00
6028;BME280;3042;43.194;27.646;2024-03-08T00:39:10;101942.91;;;12.97;100.00
6028;BME280;3042;43.194;27.646;2024-03-08T00:41:40;101945.19;;;12.74;100.00
6028;BME280;3042;43.194;27.646;2024-03-08T00:44:07;101952.28;;;12.62;100.00
6028;BME280;3042;43.194;27.646;2024-03-08T00:46:35;101954.88;;;12.62;100.00
6028;BME280;3042;43.194;27.646;2024-03-08T00:49:03;101948.16;;;12.19;100.00
6028;BME280;3042;43.194;27.646;2024-03-08T00:51:32;101940.22;;;12.48;100.00
6028;BME280;3042;43.194;27.646;2024-03-08T00:53:59;101946.91;;;12.59;100.00
6028;BME280;3042;43.194;27.646;2024-03-08T00:56:26;101918.22;;;12.56;100.00
6028;BME280;3042;43.194;27.646;2024-03-08T00:58:55;101941.44;;;12.69;100.00
6028;BME280;3042;43.194;27.646;2024-03-08T01:01:22;101940.53;;;12.37;100.00
6028;BME280;3042;43.194;27.646;2024-03-08T01:03:50;101944.09;;;12.39;100.00
6028;BME280;3042;43.194;27.646;2024-03-08T01:06:17;101928.94;;;12.62;100.00
6028;BME280;3042;43.194;27.646;2024-03-08T01:08:45;101939.31;;;12.62;100.00
6028;BME280;3042;43.194;27.646;2024-03-08T01:11:13;101867.91;;;12.21;100.00
6028;BME280;3042;43.194;27.646;2024-03-08T01:13:40;101939.69;;;12.53;100.00
6028;BME280;3042;43.194;27.646;2024-03-08T01:16:09;101936.16;;;12.36;100.00
6028;BME280;3042;43.194;27.646;2024-03-08T01:18:36;101934.81;;;12.74;100.00
6028;BME280;3042;43.194;27.646;2024-03-08T01:21:04;101946.63;;;12.69;100.00
6028;BME280;3042;43.194;27.646;2024-03-08T01:23:31;101945.25;;;12.44;100.00
6028;BME280;3042;43.194;27.646;2024-03-08T01:26:00;101941.94;;;12.78;100.00
6028;BME280;3042;43.194;27.646;2024-03-08T01:28:28;101913.47;;;12.32;100.00
6028;BME280;3042;43.194;27.646;2024-03-08T01:30:55;101950.19;;;12.71;100.00
6028;BME280;3042;43.194;27.646;2024-03-08T01:33:24;101932.19;;;12.58;100.00
6028;BME280;3042;43.194;27.646;2024-03-08T01:35:52;101875.53;;;12.49;100.00
6028;BME280;3042;43.194;27.646;2024-03-08T01:38:19;101946.91;;;12.59;100.00
6028;BME280;3042;43.194;27.646;2024-03-08T01:40:47;101945.66;;;12.67;100.00
6028;BME280;3042;43.194;27.646;2024-03-08T01:43:21;101767.81;;;11.60;100.00
6028;BME280;3042;43.194;27.646;2024-03-08T01:45:48;101938.38;;;12.76;100.00
6028;BME280;3042;43.194;27.646;2024-03-08T01:48:17;101940.88;;;12.75;100.00
6028;BME280;3042;43.194;27.646;2024-03-08T01:50:46;101935.81;;;12.93;100.00
6028;BME280;3042;43.194;27.646;2024-03-08T01:53:14;101893.00;;;13.01;100.00
6028;BME280;3042;43.194;27.646;2024-03-08T01:55:45;101938.25;;;13.39;100.00
6028;BME280;3042;43.194;27.646;2024-03-08T01:58:14;101946.38;;;13.28;100.00
6028;BME280;3042;43.194;27.646;2024-03-08T02:00:44;101926.72;;;13.17;100.00
6028;BME280;3042;43.194;27.646;2024-03-08T02:03:11;101881.63;;;13.15;100.00
6028;BME280;3042;43.194;27.646;2024-03-08T02:05:40;101905.47;;;13.24;100.00
6028;BME280;3042;43.194;27.646;2024-03-08T02:08:09;101950.13;;;13.34;100.00
6028;BME280;3042;43.194;27.646;2024-03-08T02:10:40;101877.56;;;13.04;100.00
6028;BME280;3042;43.194;27.646;2024-03-08T02:13:07;101948.47;;;13.68;100.00
6028;BME280;3042;43.194;27.646;2024-03-08T02:15:53;101926.88;;;13.20;100.00
6028;BME280;3042;43.194;27.646;2024-03-08T02:18:20;101940.31;;;13.28;100.00
6028;BME280;3042;43.194;27.646;2024-03-08T02:20:49;101946.25;;;13.10;100.00
6028;BME280;3042;43.194;27.646;2024-03-08T02:23:17;101928.00;;;12.76;100.00
6028;BME280;3042;43.194;27.646;2024-03-08T02:25:44;101946.69;;;13.02;100.00
6028;BME280;3042;43.194;27.646;2024-03-08T02:28:12;101948.31;;;13.00;100.00
6028;BME280;3042;43.194;27.646;2024-03-08T02:30:39;101935.34;;;13.16;100.00
6028;BME280;3042;43.194;27.646;2024-03-08T02:33:07;101944.88;;;13.01;100.00
6028;BME280;3042;43.194;27.646;2024-03-08T02:35:35;101939.69;;;13.01;100.00
6028;BME280;3042;43.194;27.646;2024-03-08T02:38:04;101947.97;;;12.94;100.00
6028;BME280;3042;43.194;27.646;2024-03-08T02:40:31;101944.25;;;13.05;100.00
6028;BME280;3042;43.194;27.646;2024-03-08T02:42:59;101945.50;;;12.80;100.00
6028;BME280;3042;43.194;27.646;2024-03-08T02:45:26;101945.34;;;12.77;100.00
6028;BME280;3042;43.194;27.646;2024-03-08T02:47:53;101951.31;;;12.60;100.00
6028;BME280;3042;43.194;27.646;2024-03-08T02:50:21;101939.47;;;12.65;100.00
6028;BME280;3042;43.194;27.646;2024-03-08T02:52:51;101945.94;;;12.57;100.00
6028;BME280;3042;43.194;27.646;2024-03-08T02:55:19;101941.91;;;12.62;100.00
6028;BME280;3042;43.194;27.646;2024-03-08T02:57:47;101952.66;;;12.38;100.00
6028;BME280;3042;43.194;27.646;2024-03-08T03:00:14;101956.91;;;12.36;100.00
6028;BME280;3042;43.194;27.646;2024-03-08T03:02:41;101963.09;;;12.55;100.00
6028;BME280;3042;43.194;27.646;2024-03-08T03:05:09;101874.75;;;12.04;100.00
6028;BME280;3042;43.194;27.646;2024-03-08T03:07:37;101954.38;;;12.53;100.00
6028;BME280;3042;43.194;27.646;2024-03-08T03:10:05;101959.88;;;12.59;100.00
6028;BME280;3042;43.194;27.646;2024-03-08T03:12:35;101968.28;;;12.55;100.00
6028;BME280;3042;43.194;27.646;2024-03-08T03:15:03;101969.00;;;12.52;100.00
6028;BME280;3042;43.194;27.646;2024-03-08T03:17:32;101827.59;;;11.95;100.00
6028;BME280;3042;43.194;27.646;2024-03-08T03:19:59;101967.19;;;12.66;100.00
6028;BME280;3042;43.194;27.646;2024-03-08T03:22:29;101964.97;;;12.88;100.00
6028;BME280;3042;43.194;27.646;2024-03-08T03:24:56;101964.63;;;12.82;100.00
6028;BME280;3042;43.194;27.646;2024-03-08T03:27:26;101960.53;;;12.86;100.00
6028;BME280;3042;43.194;27.646;2024-03-08T03:29:55;101962.63;;;12.93;100.00
6028;BME280;3042;43.194;27.646;2024-03-08T03:32:23;101959.44;;;12.82;100.00
6028;BME280;3042;43.194;27.646;2024-03-08T03:34:50;101961.69;;;12.60;100.00
6028;BME280;3042;43.194;27.646;2024-03-08T03:37:18;101959.44;;;12.82;100.00
6028;BME280;3042;43.194;27.646;2024-03-08T03:39:46;101945.72;;;12.68;100.00
6028;BME280;3042;43.194;27.646;2024-03-08T03:42:15;101969.78;;;11.90;100.00
6028;BME280;3042;43.194;27.646;2024-03-08T03:44:44;101957.78;;;12.37;100.00
6028;BME280;3042;43.194;27.646;2024-03-08T03:47:13;101954.22;;;12.35;100.00
6028;BME280;3042;43.194;27.646;2024-03-08T03:49:41;101968.63;;;12.61;100.00
6028;BME280;3042;43.194;27.646;2024-03-08T03:52:08;101969.63;;;11.87;100.00
6028;BME280;3042;43.194;27.646;2024-03-08T03:54:35;101965.03;;;12.28;100.00
6028;BME280;3042;43.194;27.646;2024-03-08T03:57:03;101965.22;;;12.16;100.00
6028;BME280;3042;43.194;27.646;2024-03-08T03:59:30;101966.09;;;12.31;100.00
6028;BME280;3042;43.194;27.646;2024-03-08T04:01:58;101909.59;;;11.94;100.00
6028;BME280;3042;43.194;27.646;2024-03-08T04:04:27;101977.00;;;12.25;100.00
6028;BME280;3042;43.194;27.646;2024-03-08T04:06:55;101979.94;;;12.17;100.00
6028;BME280;3042;43.194;27.646;2024-03-08T04:09:22;101947.78;;;11.69;100.00
6028;BME280;3042;43.194;27.646;2024-03-08T04:11:49;101981.06;;;11.62;100.00
6028;BME280;3042;43.194;27.646;2024-03-08T04:14:18;101972.63;;;11.80;100.00
6028;BME280;3042;43.194;27.646;2024-03-08T04:16:45;101952.97;;;11.98;100.00
6028;BME280;3042;43.194;27.646;2024-03-08T04:19:14;101971.47;;;12.04;100.00
6028;BME280;3042;43.194;27.646;2024-03-08T04:21:42;101909.22;;;12.03;100.00
6028;BME280;3042;43.194;27.646;2024-03-08T04:24:09;101970.13;;;12.26;100.00
6028;BME280;3042;43.194;27.646;2024-03-08T04:26:37;101966.38;;;12.21;100.00
6028;BME280;3042;43.194;27.646;2024-03-08T04:29:04;101971.28;;;12.31;100.00
6028;BME280;3042;43.194;27.646;2024-03-08T04:31:31;101948.06;;;12.18;100.00
6028;BME280;3042;43.194;27.646;2024-03-08T04:33:58;101969.59;;;12.17;100.00
6028;BME280;3042;43.194;27.646;2024-03-08T04:36:25;101974.44;;;12.11;100.00
6028;BME280;3042;43.194;27.646;2024-03-08T04:38:55;101978.88;;;12.28;100.00
6028;BME280;3042;43.194;27.646;2024-03-08T04:41:22;101962.97;;;12.22;100.00
6028;BME280;3042;43.194;27.646;2024-03-08T04:43:50;101941.56;;;11.95;100.00
6028;BME280;3042;43.194;27.646;2024-03-08T04:46:17;101932.63;;;12.04;100.00
6028;BME280;3042;43.194;27.646;2024-03-08T04:48:45;101970.69;;;12.20;100.00
6028;BME280;3042;43.194;27.646;2024-03-08T04:51:12;101974.44;;;12.11;100.00
6028;BME280;3042;43.194;27.646;2024-03-08T04:53:39;101952.78;;;12.10;100.00
6028;BME280;3042;43.194;27.646;2024-03-08T04:56:08;101981.75;;;12.18;100.00
6028;BME280;3042;43.194;27.646;2024-03-08T04:58:36;101985.66;;;12.26;100.00
6028;BME280;3042;43.194;27.646;2024-03-08T05:01:04;102001.56;;;12.02;100.00
6028;BME280;3042;43.194;27.646;2024-03-08T05:03:31;101981.75;;;12.18;100.00
6028;BME280;3042;43.194;27.646;2024-03-08T05:05:58;101986.56;;;12.27;100.00
6028;BME280;3042;43.194;27.646;2024-03-08T05:08:25;101988.47;;;11.99;100.00
6028;BME280;3042;43.194;27.646;2024-03-08T05:10:53;101994.41;;;11.98;100.00
6028;BME280;3042;43.194;27.646;2024-03-08T05:13:22;101813.41;;;11.14;100.00
6028;BME280;3042;43.194;27.646;2024-03-08T05:15:50;101878.50;;;11.65;100.00
6028;BME280;3042;43.194;27.646;2024-03-08T05:18:17;102002.56;;;12.04;100.00
6028;BME280;3042;43.194;27.646;2024-03-08T05:20:45;102006.59;;;11.99;100.00
6028;BME280;3042;43.194;27.646;2024-03-08T05:23:12;102003.38;;;12.18;100.00
6028;BME280;3042;43.194;27.646;2024-03-08T05:25:39;102005.00;;;12.01;100.00
6028;BME280;3042;43.194;27.646;2024-03-08T05:28:07;102012.25;;;11.79;100.00
6028;BME280;3042;43.194;27.646;2024-03-08T05:30:38;102009.28;;;12.16;100.00
6028;BME280;3042;43.194;27.646;2024-03-08T05:33:06;102015.69;;;12.08;100.00
6028;BME280;3042;43.194;27.646;2024-03-08T05:35:35;102009.00;;;12.26;100.00
6028;BME280;3042;43.194;27.646;2024-03-08T05:38:03;101957.97;;;12.10;100.00
6028;BME280;3042;43.194;27.646;2024-03-08T05:40:31;102018.88;;;12.63;100.00
6028;BME280;3042;43.194;27.646;2024-03-08T05:42:58;102014.63;;;12.49;100.00
6028;BME280;3042;43.194;27.646;2024-03-08T05:45:26;102022.22;;;12.31;100.00
6028;BME280;3042;43.194;27.646;2024-03-08T05:47:55;102003.56;;;12.36;100.00
6028;BME280;3042;43.194;27.646;2024-03-08T05:50:22;102028.38;;;12.48;100.00
6028;BME280;3042;43.194;27.646;2024-03-08T05:52:49;102022.84;;;12.41;100.00
6028;BME280;3042;43.194;27.646;2024-03-08T05:55:18;101598.63;;;9.80;100.00
6028;BME280;3042;43.194;27.646;2024-03-08T05:57:45;101884.00;;;11.56;100.00
6028;BME280;3042;43.194;27.646;2024-03-08T06:00:11;101935.66;;;12.27;100.00
6028;BME280;3042;43.194;27.646;2024-03-08T06:02:41;102009.63;;;12.37;100.00
6028;BME280;3042;43.194;27.646;2024-03-08T06:05:11;102037.66;;;12.59;100.00
6028;BME280;3042;43.194;27.646;2024-03-08T06:07:38;102039.63;;;12.63;100.00
6028;BME280;3042;43.194;27.646;2024-03-08T06:10:08;101958.13;;;12.43;100.00
6028;BME280;3042;43.194;27.646;2024-03-08T06:12:36;102034.25;;;13.22;100.00
6028;BME280;3042;43.194;27.646;2024-03-08T06:15:06;101520.00;;;9.88;100.00
6028;BME280;3042;43.194;27.646;2024-03-08T06:17:34;102039.03;;;13.15;100.00
6028;BME280;3042;43.194;27.646;2024-03-08T06:20:02;102051.03;;;12.81;100.00
6028;BME280;3042;43.194;27.646;2024-03-08T06:22:37;102051.22;;;12.84;100.00
6028;BME280;3042;43.194;27.646;2024-03-08T06:25:06;102053.53;;;12.95;100.00
6028;BME280;3042;43.194;27.646;2024-03-08T06:27:34;101896.66;;;11.94;100.00
6028;BME280;3042;43.194;27.646;2024-03-08T06:30:01;102052.91;;;13.15;100.00
6028;BME280;3042;43.194;27.646;2024-03-08T06:32:30;101924.47;;;12.59;100.00
6028;BME280;3042;43.194;27.646;2024-03-08T06:35:01;102051.03;;;13.27;100.00
6028;BME280;3042;43.194;27.646;2024-03-08T06:37:31;102064.19;;;13.30;100.00
6028;BME280;3042;43.194;27.646;2024-03-08T06:40:02;101894.19;;;12.75;100.00
6028;BME280;3042;43.194;27.646;2024-03-08T06:42:30;102039.53;;;13.71;100.00
6028;BME280;3042;43.194;27.646;2024-03-08T06:44:59;102046.31;;;13.86;100.00
6028;BME280;3042;43.194;27.646;2024-03-08T06:47:30;101806.25;;;12.63;100.00
6028;BME280;3042;43.194;27.646;2024-03-08T06:49:57;102050.69;;;14.03;100.00
6028;BME280;3042;43.194;27.646;2024-03-08T06:52:24;102043.91;;;14.23;100.00
6028;BME280;3042;43.194;27.646;2024-03-08T06:54:52;101809.50;;;12.75;100.00
6028;BME280;3042;43.194;27.646;2024-03-08T06:57:21;102044.41;;;14.50;100.00
6028;BME280;3042;43.194;27.646;2024-03-08T06:59:48;102044.66;;;14.55;100.00
6028;BME280;3042;43.194;27.646;2024-03-08T07:02:17;101962.19;;;14.00;100.00
6028;BME280;3042;43.194;27.646;2024-03-08T07:04:45;102053.81;;;14.48;100.00
6028;BME280;3042;43.194;27.646;2024-03-08T07:07:12;101903.88;;;13.43;100.00
6028;BME280;3042;43.194;27.646;2024-03-08T07:09:39;102054.19;;;14.38;100.00
6028;BME280;3042;43.194;27.646;2024-03-08T07:12:08;101887.16;;;12.88;100.00
6028;BME280;3042;43.194;27.646;2024-03-08T07:14:37;102021.47;;;13.25;100.00
6028;BME280;3042;43.194;27.646;2024-03-08T07:17:06;102068.88;;;13.06;100.00
6028;BME280;3042;43.194;27.646;2024-03-08T07:19:34;102063.19;;;13.28;100.00
6028;BME280;3042;43.194;27.646;2024-03-08T07:22:03;102071.91;;;13.14;100.00
6028;BME280;3042;43.194;27.646;2024-03-08T07:24:34;102062.06;;;13.08;100.00
6028;BME280;3042;43.194;27.646;2024-03-08T07:27:16;102011.00;;;12.76;100.00
6028;BME280;3042;43.194;27.646;2024-03-08T07:29:45;102062.63;;;13.34;100.00
6028;BME280;3042;43.194;27.646;2024-03-08T07:32:12;102043.03;;;13.24;100.00
6028;BME280;3042;43.194;27.646;2024-03-08T07:34:47;102073.00;;;13.03;100.00
6028;BME280;3042;43.194;27.646;2024-03-08T07:37:16;102080.03;;;12.74;100.00
6028;BME280;3042;43.194;27.646;2024-03-08T07:39:44;102001.56;;;12.62;100.00
6028;BME280;3042;43.194;27.646;2024-03-08T07:42:12;102069.59;;;13.04;100.00
6028;BME280;3042;43.194;27.646;2024-03-08T07:44:39;102081.25;;;12.96;100.00
6028;BME280;3042;43.194;27.646;2024-03-08T07:47:08;102073.03;;;13.19;100.00
6028;BME280;3042;43.194;27.646;2024-03-08T07:49:35;102083.00;;;13.12;100.00
6028;BME280;3042;43.194;27.646;2024-03-08T07:52:03;102076.75;;;12.62;100.00
6028;BME280;3042;43.194;27.646;2024-03-08T07:54:33;102079.69;;;12.53;100.00
6028;BME280;3042;43.194;27.646;2024-03-08T07:57:01;102109.34;;;12.73;100.00
6028;BME280;3042;43.194;27.646;2024-03-08T07:59:30;102015.69;;;12.37;100.00
6028;BME280;3042;43.194;27.646;2024-03-08T08:01:58;102072.97;;;12.57;100.00
6028;BME280;3042;43.194;27.646;2024-03-08T08:04:27;101958.59;;;11.91;100.00
6028;BME280;3042;43.194;27.646;2024-03-08T08:06:54;102071.78;;;12.81;100.00
6028;BME280;3042;43.194;27.646;2024-03-08T08:09:22;102071.44;;;12.90;100.00
6028;BME280;3042;43.194;27.646;2024-03-08T08:11:59;102065.88;;;12.84;100.00
6028;BME280;3042;43.194;27.646;2024-03-08T08:14:28;102068.53;;;13.00;100.00
6028;BME280;3042;43.194;27.646;2024-03-08T08:16:56;102071.59;;;13.24;100.00
6028;BME280;3042;43.194;27.646;2024-03-08T08:19:27;101794.09;;;11.83;100.00
6028;BME280;3042;43.194;27.646;2024-03-08T08:21:54;102076.69;;;12.92;100.00
6028;BME280;3042;43.194;27.646;2024-03-08T08:24:23;102074.78;;;13.04;100.00
6028;BME280;3042;43.194;27.646;2024-03-08T08:26:51;102042.38;;;13.12;100.00
6028;BME280;3042;43.194;27.646;2024-03-08T08:29:19;102070.84;;;13.27;100.00
6028;BME280;3042;43.194;27.646;2024-03-08T08:31:46;102063.06;;;13.42;100.00
6028;BME280;3042;43.194;27.646;2024-03-08T08:34:15;101915.22;;;12.48;100.00
6028;BME280;3042;43.194;27.646;2024-03-08T08:36:46;102074.25;;;13.57;100.00
6028;BME280;3042;43.194;27.646;2024-03-08T08:39:13;102075.56;;;13.82;100.00
6028;BME280;3042;43.194;27.646;2024-03-08T08:41:42;101998.78;;;13.70;100.00
6028;BME280;3042;43.194;27.646;2024-03-08T08:44:09;101861.28;;;13.23;100.00
6028;BME280;3042;43.194;27.646;2024-03-08T08:46:37;102005.28;;;14.13;100.00
6028;BME280;3042;43.194;27.646;2024-03-08T08:49:05;101906.34;;;13.58;100.00
6028;BME280;3042;43.194;27.646;2024-03-08T08:51:36;101825.00;;;13.24;100.00
6028;BME280;3042;43.194;27.646;2024-03-08T08:54:05;102084.31;;;14.17;100.00
6028;BME280;3042;43.194;27.646;2024-03-08T08:56:32;102074.56;;;14.12;100.00
6028;BME280;3042;43.194;27.646;2024-03-08T08:58:59;102079.13;;;14.17;100.00
6028;BME280;3042;43.194;27.646;2024-03-08T09:01:27;101924.00;;;13.30;100.00
6028;BME280;3042;43.194;27.646;2024-03-08T09:03:54;101943.16;;;13.33;100.00
6028;BME280;3042;43.194;27.646;2024-03-08T09:06:21;101813.72;;;12.73;100.00
6028;BME280;3042;43.194;27.646;2024-03-08T09:08:49;102073.13;;;14.01;100.00
6028;BME280;3042;43.194;27.646;2024-03-08T09:11:17;102014.50;;;13.73;100.00
6028;BME280;3042;43.194;27.646;2024-03-08T09:13:44;102015.16;;;13.53;100.00
6028;BME280;3042;43.194;27.646;2024-03-08T09:16:13;102080.66;;;13.16;100.00
6028;BME280;3042;43.194;27.646;2024-03-08T09:18:40;101882.16;;;12.13;100.00
6028;BME280;3042;43.194;27.646;2024-03-08T09:21:08;102086.38;;;13.25;100.00
6028;BME280;3042;43.194;27.646;2024-03-08T09:23:35;102084.16;;;13.81;100.00
6028;BME280;3042;43.194;27.646;2024-03-08T09:26:03;102014.38;;;13.38;100.00
6028;BME280;3042;43.194;27.646;2024-03-08T09:28:32;102087.25;;;13.73;100.00
6028;BME280;3042;43.194;27.646;2024-03-08T09:31:00;102084.16;;;13.81;100.00
6028;BME280;3042;43.194;27.646;2024-03-08T09:33:27;101959.13;;;12.76;100.00
6028;BME280;3042;43.194;27.646;2024-03-08T09:35:55;101742.41;;;11.24;100.00
6028;BME280;3042;43.194;27.646;2024-03-08T09:38:23;101993.78;;;12.62;100.00
6028;BME280;3042;43.194;27.646;2024-03-08T09:40:51;102095.66;;;13.37;100.00
6028;BME280;3042;43.194;27.646;2024-03-08T09:43:19;102089.28;;;13.63;100.00
6028;BME280;3042;43.194;27.646;2024-03-08T09:45:51;102087.59;;;13.96;100.00
6028;BME280;3042;43.194;27.646;2024-03-08T09:48:18;101980.44;;;13.18;100.00
6028;BME280;3042;43.194;27.646;2024-03-08T09:50:46;102082.38;;;14.12;100.00
6028;BME280;3042;43.194;27.646;2024-03-08T09:53:15;101729.75;;;12.22;100.00
6028;BME280;3042;43.194;27.646;2024-03-08T09:55:42;102085.16;;;13.83;100.00
6028;BME280;3042;43.194;27.646;2024-03-08T09:58:11;101873.78;;;12.81;100.00
6028;BME280;3042;43.194;27.646;2024-03-08T10:00:54;102084.81;;;14.09;100.00
6028;BME280;3042;43.194;27.646;2024-03-08T10:03:23;102063.78;;;14.05;100.00
6028;BME280;3042;43.194;27.646;2024-03-08T10:05:52;102095.03;;;13.90;100.00
6028;BME280;3042;43.194;27.646;2024-03-08T10:08:19;102097.66;;;13.73;100.00
6028;BME280;3042;43.194;27.646;2024-03-08T10:10:46;102090.22;;;14.14;100.00
6028;BME280;3042;43.194;27.646;2024-03-08T10:13:15;102090.66;;;14.56;100.00
6028;BME280;3042;43.194;27.646;2024-03-08T10:15:44;102087.41;;;14.78;100.00
6028;BME280;3042;43.194;27.646;2024-03-08T10:18:13;102089.44;;;14.49;100.00
6028;BME280;3042;43.194;27.646;2024-03-08T10:20:40;102084.91;;;14.45;100.00
6028;BME280;3042;43.194;27.646;2024-03-08T10:23:08;102090.47;;;14.53;100.00
6028;BME280;3042;43.194;27.646;2024-03-08T10:25:36;102043.66;;;14.01;100.00
6028;BME280;3042;43.194;27.646;2024-03-08T10:28:04;102072.75;;;14.11;100.00
6028;BME280;3042;43.194;27.646;2024-03-08T10:30:32;102083.91;;;14.60;100.00
6028;BME280;3042;43.194;27.646;2024-03-08T10:32:59;101970.22;;;13.54;100.00
6028;BME280;3042;43.194;27.646;2024-03-08T10:35:28;102091.16;;;13.82;100.00
6028;BME280;3042;43.194;27.646;2024-03-08T10:37:57;101942.91;;;13.44;100.00
6028;BME280;3042;43.194;27.646;2024-03-08T10:40:26;102084.44;;;14.36;100.00
6028;BME280;3042;43.194;27.646;2024-03-08T10:42:55;102084.47;;;14.20;100.00
6028;BME280;3042;43.194;27.646;2024-03-08T10:45:34;101892.16;;;13.67;100.00
6028;BME280;3042;43.194;27.646;2024-03-08T10:48:26;101937.19;;;14.38;100.00
6028;BME280;3042;43.194;27.646;2024-03-08T10:50:59;102065.81;;;15.16;100.00
6028;BME280;3042;43.194;27.646;2024-03-08T10:53:28;102082.94;;;14.93;100.00
6028;BME280;3042;43.194;27.646;2024-03-08T10:55:56;101936.22;;;14.00;100.00
6028;BME280;3042;43.194;27.646;2024-03-08T10:58:26;102015.72;;;14.31;100.00
6028;BME280;3042;43.194;27.646;2024-03-08T11:00:54;101890.53;;;13.53;100.00
6028;BME280;3042;43.194;27.646;2024-03-08T11:03:44;102074.63;;;14.65;100.00
6028;BME280;3042;43.194;27.646;2024-03-08T11:06:16;102071.50;;;14.90;100.00
6028;BME280;3042;43.194;27.646;2024-03-08T11:08:44;102078.31;;;14.70;100.00
6028;BME280;3042;43.194;27.646;2024-03-08T11:11:26;102073.28;;;14.91;100.00
6028;BME280;3042;43.194;27.646;2024-03-08T11:13:56;102075.19;;;14.77;100.00
6028;BME280;3042;43.194;27.646;2024-03-08T11:16:39;102069.72;;;14.71;100.00
6028;BME280;3042;43.194;27.646;2024-03-08T11:19:24;102076.78;;;14.73;100.00
6028;BME280;3042;43.194;27.646;2024-03-08T11:22:01;102069.56;;;14.51;100.00
6028;BME280;3042;43.194;27.646;2024-03-08T11:24:37;102066.00;;;14.66;100.00
6028;BME280;3042;43.194;27.646;2024-03-08T11:27:08;102070.53;;;14.35;100.00
6028;BME280;3042;43.194;27.646;2024-03-08T11:29:37;102068.53;;;14.13;100.00
6028;BME280;3042;43.194;27.646;2024-03-08T11:32:07;101990.00;;;13.68;100.00
6028;BME280;3042;43.194;27.646;2024-03-08T11:34:35;102035.88;;;14.19;100.00
6028;BME280;3042;43.194;27.646;2024-03-08T11:37:05;102029.91;;;14.03;100.00
6028;BME280;3042;43.194;27.646;2024-03-08T11:39:36;102061.91;;;14.36;100.00
6028;BME280;3042;43.194;27.646;2024-03-08T11:42:04;102060.13;;;14.70;100.00
6028;BME280;3042;43.194;27.646;2024-03-08T11:44:32;102051.97;;;14.46;100.00
6028;BME280;3042;43.194;27.646;2024-03-08T11:46:59;101639.38;;;12.44;100.00
6028;BME280;3042;43.194;27.646;2024-03-08T11:49:26;101911.81;;;13.80;100.00
6028;BME280;3042;43.194;27.646;2024-03-08T11:51:54;102064.28;;;14.32;100.00
6028;BME280;3042;43.194;27.646;2024-03-08T11:54:23;102062.13;;;14.57;100.00
6028;BME280;3042;43.194;27.646;2024-03-08T11:56:52;102058.81;;;14.44;100.00
6028;BME280;3042;43.194;27.646;2024-03-08T11:59:20;101894.19;;;13.57;100.00
6028;BME280;3042;43.194;27.646;2024-03-08T12:02:06;102054.47;;;14.44;100.00
6028;BME280;3042;43.194;27.646;2024-03-08T12:04:35;102059.44;;;14.22;100.00
6028;BME280;3042;43.194;27.646;2024-03-08T12:07:04;102061.47;;;13.60;100.00
6028;BME280;3042;43.194;27.646;2024-03-08T12:09:36;102002.50;;;13.76;100.00
6028;BME280;3042;43.194;27.646;2024-03-08T12:12:03;102048.13;;;13.54;100.00
6028;BME280;3042;43.194;27.646;2024-03-08T12:14:33;101827.84;;;12.31;100.00
6028;BME280;3042;43.194;27.646;2024-03-08T12:17:02;101919.41;;;12.77;100.00
6028;BME280;3042;43.194;27.646;2024-03-08T12:19:31;102054.84;;;14.00;100.00
6028;BME280;3042;43.194;27.646;2024-03-08T12:22:07;102050.56;;;14.00;100.00
6028;BME280;3042;43.194;27.646;2024-03-08T12:24:38;102056.63;;;14.01;100.00
6028;BME280;3042;43.194;27.646;2024-03-08T12:27:18;101996.31;;;13.90;100.00
6028;BME280;3042;43.194;27.646;2024-03-08T12:29:46;102051.00;;;14.26;100.00
6028;BME280;3042;43.194;27.646;2024-03-08T12:32:13;102046.03;;;14.48;100.00
6028;BME280;3042;43.194;27.646;2024-03-08T12:34:41;102011.25;;;14.28;100.00
6028;BME280;3042;43.194;27.646;2024-03-08T12:37:08;102051.13;;;14.81;100.00
6028;BME280;3042;43.194;27.646;2024-03-08T12:39:37;101928.31;;;13.99;100.00
6028;BME280;3042;43.194;27.646;2024-03-08T12:42:05;102044.72;;;14.74;100.00
6028;BME280;3042;43.194;27.646;2024-03-08T12:44:33;102047.72;;;14.82;100.00
6028;BME280;3042;43.194;27.646;2024-03-08T12:47:00;102052.03;;;14.64;100.00
6028;BME280;3042;43.194;27.646;2024-03-08T12:49:27;102045.44;;;14.36;100.00
6028;BME280;3042;43.194;27.646;2024-03-08T12:51:56;101986.13;;;13.77;100.00
6028;BME280;3042;43.194;27.646;2024-03-08T12:54:23;102049.47;;;14.47;100.00
6028;BME280;3042;43.194;27.646;2024-03-08T12:56:52;102043.81;;;14.38;100.00
6028;BME280;3042;43.194;27.646;2024-03-08T12:59:20;102046.16;;;14.51;100.00